Time;durP1;ratioP1;P1;durP2;ratioP2;P2;SDS_P1;SDS_P2;PMS_P1;PMS_P2;Temp;Humidity;BMP_temperature;BMP_pressure;BME280_temperature;BME280_humidity;BME280_pressure;Samples;Min_cycle;Max_cycle;Signal;HPM_P1;HPM_P2
2021/09/03 00:02:15;;;;;;;15.60;7.47;;;;;;;10.29;100.00;101448.91;5054345;28;20029;-84
2021/09/03 00:04:41;;;;;;;21.00;9.68;;;;;;;10.27;100.00;101445.44;5055324;28;20366;-84
2021/09/03 00:07:07;;;;;;;15.50;7.53;;;;;;;10.22;100.00;101442.84;5055580;28;20020;-84
2021/09/03 00:09:32;;;;;;;14.98;7.25;;;;;;;10.15;100.00;101438.53;5055275;28;20031;-84
2021/09/03 00:11:58;;;;;;;16.67;7.05;;;;;;;10.18;100.00;101445.44;5055056;28;20088;-84
2021/09/03 00:14:23;;;;;;;15.13;7.60;;;;;;;10.09;100.00;101439.41;5054621;28;20075;-84
2021/09/03 00:16:48;;;;;;;19.08;7.88;;;;;;;10.03;100.00;101438.56;5060143;28;20075;-84
2021/09/03 00:19:14;;;;;;;18.85;7.60;;;;;;;10.07;100.00;101428.19;5059523;28;20480;-84
2021/09/03 00:21:39;;;;;;;13.75;7.03;;;;;;;9.99;100.00;101432.53;5059590;28;20552;-84
2021/09/03 00:24:04;;;;;;;16.08;7.00;;;;;;;10.11;100.00;101423.88;5060046;28;20025;-84
2021/09/03 00:26:30;;;;;;;17.25;7.28;;;;;;;10.15;100.00;101420.38;5059829;28;20024;-84
2021/09/03 00:28:55;;;;;;;25.52;8.02;;;;;;;10.02;100.00;101409.19;5060031;28;20021;-84
2021/09/03 00:31:20;;;;;;;14.73;7.63;;;;;;;9.96;100.00;101413.53;5060201;28;20021;-84
2021/09/03 00:33:46;;;;;;;14.48;6.95;;;;;;;9.83;100.00;101408.38;5059828;28;20029;-84
2021/09/03 00:36:11;;;;;;;16.75;7.40;;;;;;;9.78;100.00;101415.28;5060933;28;20021;-84
2021/09/03 00:38:36;;;;;;;14.50;7.43;;;;;;;9.77;100.00;101417.88;5060577;28;20564;-84
2021/09/03 00:41:02;;;;;;;18.15;7.13;;;;;;;9.73;100.00;101416.13;5061487;28;20028;-84
2021/09/03 00:43:28;;;;;;;17.20;7.53;;;;;;;9.72;100.00;101407.50;5062718;28;20048;-84
2021/09/03 00:45:54;;;;;;;20.27;7.15;;;;;;;9.74;100.00;101402.34;5061361;28;20078;-84
2021/09/03 00:48:19;;;;;;;13.38;6.85;;;;;;;9.73;100.00;101408.38;5061301;28;20078;-84
2021/09/03 00:50:45;;;;;;;16.90;7.85;;;;;;;9.71;100.00;101404.94;5060865;28;20025;-84
2021/09/03 00:53:11;;;;;;;18.17;7.50;;;;;;;9.62;100.00;101405.78;5060961;28;20032;-85
2021/09/03 00:55:36;;;;;;;15.63;6.65;;;;;;;9.61;100.00;101404.94;5062428;28;20025;-84
2021/09/03 00:58:01;;;;;;;18.40;7.50;;;;;;;9.59;100.00;101408.38;5061291;28;20121;-84
2021/09/03 01:00:27;;;;;;;13.45;6.38;;;;;;;9.57;100.00;101404.94;5062759;28;20088;-84
2021/09/03 01:02:52;;;;;;;13.10;6.38;;;;;;;9.58;100.00;101397.16;5061487;28;20389;-83
2021/09/03 01:05:17;;;;;;;17.23;7.10;;;;;;;9.53;100.00;101393.72;5063158;28;20100;-84
2021/09/03 01:07:43;;;;;;;16.85;6.80;;;;;;;9.53;100.00;101392.84;5063846;28;20481;-84
2021/09/03 01:10:09;;;;;;;12.27;6.20;;;;;;;9.61;100.00;101386.81;5061503;28;20016;-84
2021/09/03 01:12:34;;;;;;;15.00;7.63;;;;;;;9.65;100.00;101387.66;5061235;28;20017;-84
2021/09/03 01:14:59;;;;;;;13.85;6.65;;;;;;;9.60;100.00;101389.38;5061198;28;20032;-84
2021/09/03 01:17:25;;;;;;;16.00;7.30;;;;;;;9.56;100.00;101383.34;5060136;28;20021;-84
2021/09/03 01:19:51;;;;;;;15.40;7.18;;;;;;;9.52;100.00;101385.97;5059754;28;20087;-84
2021/09/03 01:22:21;;;;;;;14.93;6.68;;;;;;;9.51;100.00;101377.31;5060552;28;20103;-84
2021/09/03 01:24:47;;;;;;;16.10;6.47;;;;;;;9.58;100.00;101373.00;5062058;28;20393;-84
2021/09/03 01:27:12;;;;;;;15.38;7.15;;;;;;;9.60;100.00;101371.25;5061192;28;20035;-84
2021/09/03 01:29:37;;;;;;;16.75;7.10;;;;;;;9.51;100.00;101371.25;5058080;28;20448;-84
2021/09/03 01:32:03;;;;;;;16.70;6.97;;;;;;;9.58;100.00;101363.50;5057583;28;20025;-84
2021/09/03 01:34:28;;;;;;;12.05;7.45;;;;;;;9.55;100.00;101363.50;5057552;28;20033;-84
2021/09/03 01:36:53;;;;;;;12.10;6.60;;;;;;;9.54;100.00;101364.34;5059792;28;20021;-84
2021/09/03 01:39:19;;;;;;;15.23;7.43;;;;;;;9.49;100.00;101355.75;5060140;28;20032;-84
2021/09/03 01:41:44;;;;;;;19.15;7.53;;;;;;;9.53;100.00;101362.63;5058991;28;20031;-84
2021/09/03 01:44:10;;;;;;;11.90;7.13;;;;;;;9.51;100.00;101368.66;5060248;28;20025;-84
2021/09/03 01:46:36;;;;;;;16.25;6.60;;;;;;;9.60;100.00;101355.72;5059593;28;20025;-84
2021/09/03 01:49:01;;;;;;;18.00;7.57;;;;;;;9.61;100.00;101360.06;5059872;28;20378;-84
2021/09/03 01:51:26;;;;;;;12.50;6.57;;;;;;;9.54;100.00;101353.13;5058862;28;20025;-84
2021/09/03 01:53:52;;;;;;;19.15;7.50;;;;;;;9.50;100.00;101356.59;5060863;28;20059;-84
2021/09/03 01:56:17;;;;;;;18.38;7.00;;;;;;;9.51;100.00;101347.97;5058833;28;20028;-84
2021/09/03 01:58:42;;;;;;;13.95;6.85;;;;;;;9.52;100.00;101344.53;5057630;28;20028;-84
2021/09/03 02:01:07;;;;;;;14.82;7.32;;;;;;;9.47;100.00;101349.69;5059889;28;20025;-84
2021/09/03 02:03:33;;;;;;;16.50;6.93;;;;;;;9.51;100.00;101351.41;5058781;28;20108;-84
2021/09/03 02:05:58;;;;;;;14.00;7.03;;;;;;;9.55;100.00;101349.69;5059001;28;20087;-84
2021/09/03 02:08:23;;;;;;;16.20;7.18;;;;;;;9.55;100.00;101340.19;5060446;28;20048;-84
2021/09/03 02:10:49;;;;;;;13.35;6.60;;;;;;;9.58;100.00;101341.94;5058565;28;20020;-84
2021/09/03 02:13:14;;;;;;;19.15;7.47;;;;;;;9.56;100.00;101336.72;5059942;28;20362;-84
2021/09/03 02:15:40;;;;;;;13.95;7.00;;;;;;;9.62;100.00;101338.47;5059869;28;20061;-84
2021/09/03 02:18:05;;;;;;;15.68;7.03;;;;;;;9.61;100.00;101336.75;5059251;28;20064;-84
2021/09/03 02:20:31;;;;;;;15.02;7.03;;;;;;;9.61;100.00;101334.16;5060490;28;20502;-84
2021/09/03 02:22:56;;;;;;;15.93;7.63;;;;;;;9.65;100.00;101330.69;5059318;28;20028;-84
2021/09/03 02:25:21;;;;;;;15.18;7.43;;;;;;;9.66;100.00;101333.25;5058402;28;20444;-84
2021/09/03 02:27:47;;;;;;;13.63;7.35;;;;;;;9.65;100.00;101331.53;5058213;28;20017;-84
2021/09/03 02:30:12;;;;;;;18.42;8.07;;;;;;;9.61;100.00;101326.38;5060187;28;20033;-84
2021/09/03 02:32:38;;;;;;;13.98;7.25;;;;;;;9.57;100.00;101320.31;5059350;28;20025;-84
2021/09/03 02:35:03;;;;;;;15.85;6.95;;;;;;;9.61;100.00;101313.44;5057472;28;20021;-84
2021/09/03 02:37:29;;;;;;;15.07;7.10;;;;;;;9.67;100.00;101316.88;5058196;28;20036;-84
2021/09/03 02:39:54;;;;;;;19.00;7.25;;;;;;;9.59;100.00;101309.97;5057107;28;20060;-84
2021/09/03 02:42:19;;;;;;;22.92;7.63;;;;;;;9.66;100.00;101303.91;5057553;28;20037;-84
2021/09/03 02:44:44;;;;;;;17.25;7.47;;;;;;;9.56;100.00;101310.84;5058891;28;20374;-84
2021/09/03 02:47:10;;;;;;;17.45;8.00;;;;;;;9.66;100.00;101299.56;5059573;28;20024;-83
2021/09/03 02:49:35;;;;;;;18.10;7.75;;;;;;;9.72;100.00;101300.44;5058900;28;20025;-83
2021/09/03 02:52:00;;;;;;;18.55;7.65;;;;;;;9.70;100.00;101303.06;5058024;28;20025;-83
2021/09/03 02:54:26;;;;;;;18.38;7.47;;;;;;;9.72;100.00;101306.47;5058110;28;20075;-84
2021/09/03 02:56:51;;;;;;;16.77;7.47;;;;;;;9.79;100.00;101304.72;5057179;28;20024;-83
2021/09/03 02:59:16;;;;;;;18.20;7.20;;;;;;;9.81;100.00;101300.41;5057113;28;20029;-84
2021/09/03 03:01:42;;;;;;;17.73;7.45;;;;;;;9.77;100.00;101291.78;5056843;28;20560;-84
2021/09/03 03:04:07;;;;;;;15.05;7.10;;;;;;;9.77;100.00;101296.97;5057323;28;20036;-84
2021/09/03 03:06:32;;;;;;;14.57;6.65;;;;;;;9.79;100.00;101303.03;5058676;28;20117;-84
2021/09/03 03:08:57;;;;;;;16.10;6.88;;;;;;;9.71;100.00;101297.00;5057352;28;20024;-84
2021/09/03 03:11:23;;;;;;;18.50;6.90;;;;;;;9.72;100.00;101301.28;5056507;28;20086;-84
2021/09/03 03:13:49;;;;;;;18.08;7.68;;;;;;;9.72;100.00;101285.75;5057094;28;20028;-84
2021/09/03 03:16:15;;;;;;;15.88;7.38;;;;;;;9.81;100.00;101290.91;5056322;28;20033;-84
2021/09/03 03:18:42;;;;;;;16.83;7.20;;;;;;;9.87;100.00;101283.13;5057697;28;20403;-84
2021/09/03 03:21:07;;;;;;;15.55;7.07;;;;;;;9.87;100.00;101285.69;5057773;28;20108;-84
2021/09/03 03:23:32;;;;;;;18.35;7.60;;;;;;;9.88;100.00;101284.84;5057059;28;20078;-84
2021/09/03 03:25:58;;;;;;;16.17;7.68;;;;;;;9.95;100.00;101293.47;5057659;28;20029;-84
2021/09/03 03:28:23;;;;;;;19.63;7.78;;;;;;;10.07;100.00;101287.38;5058311;28;20029;-84
2021/09/03 03:30:48;;;;;;;19.25;7.40;;;;;;;10.17;100.00;101285.59;5055876;28;20055;-84
2021/09/03 03:33:14;;;;;;;16.67;7.15;;;;;;;10.30;100.00;101275.16;5056315;28;20036;-84
2021/09/03 03:35:39;;;;;;;19.88;7.22;;;;;;;10.44;100.00;101289.81;5057229;28;20084;-84
2021/09/03 03:38:04;;;;;;;19.00;8.40;;;;;;;10.57;100.00;101279.34;5055429;28;20024;-84
2021/09/03 03:40:30;;;;;;;17.13;7.50;;;;;;;10.66;100.00;101278.41;5057755;28;20020;-84
2021/09/03 03:42:55;;;;;;;17.52;7.95;;;;;;;10.78;100.00;101275.75;5054966;28;20067;-83
2021/09/03 03:45:20;;;;;;;21.17;8.55;;;;;;;10.89;100.00;101274.78;5056323;28;20021;-84
2021/09/03 03:47:46;;;;;;;21.75;8.52;;;;;;;10.96;100.00;101266.06;5055869;28;20473;-84
2021/09/03 03:50:12;;;;;;;16.33;7.82;;;;;;;11.09;100.00;101266.84;5055956;28;20045;-84
2021/09/03 03:52:37;;;;;;;21.63;8.88;;;;;;;11.12;100.00;101267.66;5057463;28;20025;-84
2021/09/03 03:55:03;;;;;;;16.75;8.00;;;;;;;11.19;100.00;101268.47;5056696;28;20023;-84
2021/09/03 03:57:28;;;;;;;21.38;9.80;;;;;;;11.25;100.00;101268.41;5057268;28;20021;-83
2021/09/03 03:59:53;;;;;;;20.67;9.60;;;;;;;11.31;100.00;101262.31;5058022;28;20021;-84
2021/09/03 04:02:19;;;;;;;22.20;10.18;;;;;;;11.37;100.00;101257.03;5059525;28;20033;-83
2021/09/03 04:04:44;;;;;;;20.60;10.18;;;;;;;11.37;100.00;101254.44;5085498;22;20063;-87
2021/09/03 04:07:09;;;;;;;19.80;9.95;;;;;;;11.36;100.00;101255.31;5072111;28;20027;-87
2021/09/03 04:09:34;;;;;;;18.10;9.50;;;;;;;11.38;100.00;101249.22;5071948;28;20025;-87
2021/09/03 04:12:00;;;;;;;18.00;9.43;;;;;;;11.40;100.00;101251.81;5071900;28;20492;-87
2021/09/03 04:14:25;;;;;;;25.45;10.65;;;;;;;11.42;100.00;101242.25;5073067;28;20043;-87
2021/09/03 04:16:50;;;;;;;23.73;10.88;;;;;;;11.37;100.00;101242.31;5071963;28;20032;-87
2021/09/03 04:19:15;;;;;;;18.88;10.00;;;;;;;11.40;100.00;101251.81;5073120;28;20017;-87
2021/09/03 04:21:41;;;;;;;25.05;11.02;;;;;;;11.39;100.00;101242.28;5071955;28;20021;-87
2021/09/03 04:24:06;;;;;;;23.77;10.88;;;;;;;11.36;100.00;101240.59;5071849;28;20112;-87
2021/09/03 04:26:32;;;;;;;18.88;10.95;;;;;;;11.42;100.00;101239.66;5072066;28;20020;-87
2021/09/03 04:28:58;;;;;;;19.48;11.73;;;;;;;11.41;100.00;101228.41;5071775;28;20070;-87
2021/09/03 04:31:23;;;;;;;22.35;11.23;;;;;;;11.45;100.00;101232.72;5071699;28;20028;-87
2021/09/03 04:33:48;;;;;;;23.50;11.35;;;;;;;11.46;100.00;101230.97;5071703;28;20496;-87
2021/09/03 04:36:14;;;;;;;26.25;10.93;;;;;;;11.48;100.00;101224.00;5071665;28;20024;-87
2021/09/03 04:38:39;;;;;;;20.38;10.93;;;;;;;11.45;100.00;101231.84;5073234;28;20024;-87
2021/09/03 04:41:05;;;;;;;23.40;11.50;;;;;;;11.39;100.00;101231.91;5071612;28;20032;-87
2021/09/03 04:43:30;;;;;;;25.80;12.23;;;;;;;11.42;100.00;101229.25;5072812;28;20029;-87
2021/09/03 04:45:55;;;;;;;24.65;12.07;;;;;;;11.46;100.00;101230.97;5071679;28;20025;-87
2021/09/03 04:48:21;;;;;;;24.38;11.95;;;;;;;11.49;100.00;101218.81;5071580;28;20032;-87
2021/09/03 04:50:46;;;;;;;20.08;11.23;;;;;;;11.51;100.00;101213.56;5071506;28;20036;-87
2021/09/03 04:53:11;;;;;;;25.55;12.13;;;;;;;11.52;100.00;101216.19;5071302;28;20031;-87
2021/09/03 04:55:37;;;;;;;23.58;12.40;;;;;;;11.62;100.00;101221.25;5072617;28;20384;-87
2021/09/03 04:58:02;;;;;;;20.30;11.75;;;;;;;11.63;100.00;101222.97;5071376;28;20029;-87
2021/09/03 05:00:27;;;;;;;21.48;11.25;;;;;;;11.66;100.00;101218.59;5072985;28;20029;-87
2021/09/03 05:02:52;;;;;;;22.95;12.13;;;;;;;11.66;100.00;101217.75;5073821;28;20484;-87
2021/09/03 05:05:18;;;;;;;24.35;11.68;;;;;;;11.68;100.00;101218.59;5076193;28;20032;-87
2021/09/03 05:07:43;;;;;;;24.02;11.50;;;;;;;11.72;100.00;101220.25;5075172;28;20389;-88
2021/09/03 05:10:10;;;;;;;26.63;12.35;;;;;;;11.74;100.00;101219.38;5075260;28;20404;-87
2021/09/03 05:12:36;;;;;;;23.70;11.95;;;;;;;11.76;100.00;101208.97;5076174;28;20056;-88
2021/09/03 05:15:12;;;;;;;21.48;11.50;;;;;;;11.77;100.00;101212.44;5075029;28;20020;-88
2021/09/03 05:17:38;;;;;;;20.45;11.43;;;;;;;11.83;100.00;101214.94;5076130;28;20024;-88
2021/09/03 05:20:05;;;;;;;27.35;11.55;;;;;;;11.84;100.00;101212.31;5076128;28;20028;-88
2021/09/03 05:22:32;;;;;;;23.48;12.13;;;;;;;11.88;100.00;101210.56;5076126;28;20035;-86
2021/09/03 05:24:58;;;;;;;23.30;10.82;;;;;;;12.08;100.00;101203.38;5074744;28;20025;-87
2021/09/03 05:27:23;;;;;;;25.15;11.05;;;;;;;12.16;100.00;101214.53;5074851;28;20477;-86
2021/09/03 05:29:49;;;;;;;26.45;10.82;;;;;;;12.20;100.00;101204.94;5075062;28;20162;-86
2021/09/03 05:32:14;;;;;;;26.23;11.93;;;;;;;12.21;100.00;101204.91;5076186;28;20078;-86
2021/09/03 05:34:39;;;;;;;23.35;10.70;;;;;;;12.29;100.00;101212.59;5075780;28;20028;-87
2021/09/03 05:37:04;;;;;;;27.30;10.77;;;;;;;12.35;100.00;101209.91;5074543;28;20119;-87
2021/09/03 05:39:30;;;;;;;21.33;11.07;;;;;;;12.32;100.00;101204.75;5075811;28;20024;-87
2021/09/03 05:41:55;;;;;;;23.33;10.95;;;;;;;12.28;100.00;101207.41;5074391;28;20078;-87
2021/09/03 05:44:20;;;;;;;22.48;10.88;;;;;;;12.40;100.00;101207.22;5075715;28;20438;-87
2021/09/03 05:46:45;;;;;;;18.90;10.85;;;;;;;12.48;100.00;101207.97;5074448;28;20020;-87
2021/09/03 05:49:11;;;;;;;21.15;11.77;;;;;;;12.50;100.00;101201.00;5074464;28;20506;-87
2021/09/03 05:51:36;;;;;;;20.63;10.43;;;;;;;12.55;100.00;101206.13;5074330;28;20047;-87
2021/09/03 05:54:08;;;;;;;26.50;10.82;;;;;;;12.56;100.00;101198.31;5074394;28;20388;-87
2021/09/03 05:56:34;;;;;;;21.63;10.65;;;;;;;12.62;100.00;101197.31;5074350;28;20024;-87
2021/09/03 05:58:59;;;;;;;24.48;11.38;;;;;;;12.56;100.00;101197.44;5075449;28;20024;-87
2021/09/03 06:01:24;;;;;;;22.48;11.05;;;;;;;12.55;100.00;101200.94;5075516;28;20024;-87
2021/09/03 06:03:49;;;;;;;23.55;10.90;;;;;;;12.66;100.00;101194.66;5074224;28;20534;-88
2021/09/03 06:06:15;;;;;;;20.67;10.57;;;;;;;12.70;100.00;101197.22;5073960;28;20031;-87
2021/09/03 06:08:40;;;;;;;23.35;10.18;;;;;;;12.75;100.00;101204.06;5074047;28;20060;-87
2021/09/03 06:11:05;;;;;;;23.27;10.38;;;;;;;12.82;100.00;101194.41;5074069;28;20483;-87
2021/09/03 06:13:32;;;;;;;22.35;9.77;;;;;;;12.85;100.00;101191.75;5073254;28;20053;-87
2021/09/03 06:15:57;;;;;;;23.75;10.65;;;;;;;12.93;100.00;101192.50;5075239;28;20025;-87
2021/09/03 06:18:23;;;;;;;22.08;9.73;;;;;;;12.98;100.00;101188.03;5074346;28;20031;-88
2021/09/03 06:20:48;;;;;;;19.33;9.30;;;;;;;12.98;100.00;101190.63;5073859;28;20546;-88
2021/09/03 06:23:13;;;;;;;20.30;9.35;;;;;;;13.02;100.00;101181.91;5073746;28;20027;-88
2021/09/03 06:25:38;;;;;;;24.42;10.82;;;;;;;13.16;100.00;101193.81;5073774;28;20039;-88
2021/09/03 06:28:04;;;;;;;24.80;9.30;;;;;;;13.26;100.00;101179.75;5073716;28;20464;-88
2021/09/03 06:30:29;;;;;;;19.23;8.80;;;;;;;13.32;100.00;101182.22;5074505;28;20029;-88
2021/09/03 06:32:54;;;;;;;18.77;9.20;;;;;;;13.40;100.00;101180.34;5073570;28;20017;-88
2021/09/03 06:35:20;;;;;;;20.08;9.27;;;;;;;13.52;100.00;101182.69;5073448;28;20024;-88
2021/09/03 06:37:45;;;;;;;27.23;10.02;;;;;;;13.51;100.00;101180.09;5073749;28;20081;-88
2021/09/03 06:40:10;;;;;;;24.23;9.35;;;;;;;13.56;100.00;101184.34;5074789;28;20031;-87
2021/09/03 06:42:36;;;;;;;20.77;9.73;;;;;;;13.68;100.00;101178.03;5074810;28;20028;-87
2021/09/03 06:45:01;;;;;;;21.10;9.02;;;;;;;13.64;100.00;101173.78;5073710;28;20066;-88
2021/09/03 06:47:27;;;;;;;21.45;9.55;;;;;;;13.89;100.00;101168.88;5073504;28;20393;-88
2021/09/03 06:49:53;;;;;;;21.05;9.10;;;;;;;13.84;100.00;101169.88;5074038;28;20464;-88
2021/09/03 06:52:28;;;;;;;20.55;8.40;;;;;;;13.93;100.00;101173.13;5073230;28;20139;-88
2021/09/03 06:54:53;;;;;;;17.50;8.52;;;;;;;13.91;100.00;101166.22;5075250;28;20048;-88
2021/09/03 06:57:18;;;;;;;21.73;8.65;;;;;;;13.94;100.00;101163.53;5073420;28;20130;-88
2021/09/03 06:59:44;;;;;;;19.63;8.77;;;;;;;14.13;100.00;101166.59;5073111;28;20043;-88
2021/09/03 07:02:11;;;;;;;19.50;8.60;;;;;;;14.20;100.00;101165.56;5073266;28;20392;-88
2021/09/03 07:04:36;;;;;;;16.02;7.75;;;;;;;14.21;100.00;101156.84;5073235;28;20431;-88
2021/09/03 07:07:01;;;;;;;17.10;7.82;;;;;;;14.45;100.00;101163.22;5074078;28;20085;-89
2021/09/03 07:09:27;;;;;;;21.73;8.75;;;;;;;14.58;100.00;101166.44;5073689;28;20024;-89
2021/09/03 07:11:52;;;;;;;21.08;8.02;;;;;;;14.48;100.00;101160.56;5073863;28;20025;-89
2021/09/03 07:14:18;;;;;;;17.42;8.07;;;;;;;14.40;100.00;101162.47;5073377;28;20020;-88
2021/09/03 07:16:43;;;;;;;21.50;7.68;;;;;;;14.36;100.00;101161.69;5073522;28;20020;-89
2021/09/03 07:19:09;;;;;;;26.70;8.40;;;;;;;14.39;100.00;101161.63;5075173;28;20032;-89
2021/09/03 07:21:34;;;;;;;18.52;8.15;;;;;;;14.36;100.00;101164.31;5073550;28;20111;-89
2021/09/03 07:24:00;;;;;;;18.83;7.47;;;;;;;14.28;100.00;101174.06;5074676;28;20021;-89
2021/09/03 07:26:26;;;;;;;21.25;8.15;;;;;;;14.33;100.00;101161.78;5072336;28;20020;-89
2021/09/03 07:28:53;;;;;;;20.15;7.20;;;;;;;14.39;100.00;101166.00;5072838;28;20044;-89
2021/09/03 07:31:18;;;;;;;19.88;8.40;;;;;;;14.37;100.00;101163.41;5074192;28;20044;-88
2021/09/03 07:33:44;;;;;;;17.92;7.38;;;;;;;14.37;100.00;101165.16;5073034;28;20035;-89
2021/09/03 07:36:09;;;;;;;20.70;7.75;;;;;;;14.33;100.00;101164.38;5072994;28;20020;-89
2021/09/03 07:38:34;;;;;;;19.52;7.35;;;;;;;14.42;100.00;101169.38;5075119;28;20561;-89
2021/09/03 07:41:00;;;;;;;28.33;8.75;;;;;;;14.45;100.00;101166.69;5074004;28;20025;-89
2021/09/03 07:43:25;;;;;;;17.60;8.02;;;;;;;14.56;100.00;101168.22;5074357;28;20012;-89
2021/09/03 07:45:51;;;;;;;21.08;8.00;;;;;;;14.42;100.00;101164.16;5073074;28;20145;-88
2021/09/03 07:48:16;;;;;;;16.20;6.82;;;;;;;14.51;100.00;101165.72;5073023;28;20028;-89
2021/09/03 07:50:42;;;;;;;23.60;7.65;;;;;;;14.58;100.00;101161.19;5073073;28;20089;-89
2021/09/03 07:53:07;;;;;;;19.90;7.88;;;;;;;14.45;100.00;101161.47;5074407;28;20032;-89
2021/09/03 07:55:34;;;;;;;18.50;7.93;;;;;;;14.56;100.00;101163.84;5074783;28;20440;-89
2021/09/03 07:58:01;;;;;;;15.35;7.45;;;;;;;14.67;100.00;101171.41;5073332;28;20361;-89
2021/09/03 08:00:26;;;;;;;23.10;8.88;;;;;;;14.76;100.00;101168.56;5073197;28;20024;-89
2021/09/03 08:02:51;;;;;;;17.75;7.82;;;;;;;14.66;100.00;101169.72;5073074;28;20032;-88
2021/09/03 08:05:17;;;;;;;16.42;8.20;;;;;;;14.74;100.00;101170.34;5072905;28;20029;-88
2021/09/03 08:07:42;;;;;;;19.30;8.75;;;;;;;14.82;100.00;101172.78;5072987;28;20112;-89
2021/09/03 08:10:09;;;;;;;19.48;8.73;;;;;;;14.78;100.00;101169.41;5073100;28;20028;-89
2021/09/03 08:12:35;;;;;;;17.67;7.95;;;;;;;14.97;100.00;101175.00;5072928;28;20035;-89
2021/09/03 08:15:01;;;;;;;17.13;8.27;;;;;;;15.05;100.00;101172.16;5072221;28;20553;-89
2021/09/03 08:17:26;;;;;;;16.70;7.93;;;;;;;15.06;100.00;101166.91;5074142;28;20024;-89
2021/09/03 08:19:51;;;;;;;18.70;8.25;;;;;;;15.06;100.00;101169.53;5073138;28;20469;-88
2021/09/03 08:22:16;;;;;;;20.58;8.82;;;;;;;15.01;100.00;101163.56;5073429;28;20060;-89
2021/09/03 08:24:42;;;;;;;17.25;7.05;;;;;;;15.13;100.00;101163.22;5072236;28;20020;-89
2021/09/03 08:27:07;;;;;;;16.65;7.35;;;;;;;15.18;100.00;101161.34;5071881;28;20020;-89
2021/09/03 08:29:33;;;;;;;17.05;7.38;;;;;;;15.55;100.00;101165.53;5072204;28;20055;-89
2021/09/03 08:31:58;;;;;;;16.00;7.95;;;;;;;15.74;100.00;101157.19;5073246;28;20388;-89
2021/09/03 08:34:23;;;;;;;15.20;7.57;;;;;;;15.89;100.00;101148.88;5073277;28;20021;-89
2021/09/03 08:36:48;;;;;;;14.57;7.88;;;;;;;16.09;100.00;101154.31;5073104;28;20062;-89
2021/09/03 08:39:14;;;;;;;16.88;7.38;;;;;;;16.26;100.00;101150.31;5075866;28;20058;-89
2021/09/03 08:41:39;;;;;;;16.75;7.35;;;;;;;16.48;100.00;101150.47;5075926;28;20369;-89
2021/09/03 08:44:05;;;;;;;15.00;7.97;;;;;;;16.25;100.00;101159.91;5075727;28;20491;-89
2021/09/03 08:46:34;;;;;;;13.07;6.82;;;;;;;15.85;100.00;101155.06;5075645;28;20040;-89
2021/09/03 08:49:04;;;;;;;14.57;7.68;;;;;;;16.54;100.00;101145.88;5075749;28;20032;-89
2021/09/03 08:51:29;;;;;;;14.02;7.28;;;;;;;16.58;100.00;101151.88;5075625;28;20028;-89
2021/09/03 08:53:55;;;;;;;15.70;7.40;;;;;;;17.08;100.00;101151.06;5075445;28;20024;-89
2021/09/03 08:56:20;;;;;;;17.10;8.05;;;;;;;16.86;100.00;101150.97;5075587;28;20021;-89
2021/09/03 08:58:46;;;;;;;19.63;7.60;;;;;;;17.22;100.00;101160.13;5075588;28;20165;-89
2021/09/03 09:01:14;;;;;;;17.23;7.78;;;;;;;17.70;100.00;101153.09;5075606;28;20025;-89
2021/09/03 09:03:41;;;;;;;16.83;7.93;;;;;;;18.59;100.00;101155.66;5075687;28;20035;-89
2021/09/03 09:06:08;;;;;;;15.00;6.93;;;;;;;17.99;100.00;101157.28;5075246;28;20393;-89
2021/09/03 09:08:35;;;;;;;15.65;7.22;;;;;;;17.56;100.00;101150.19;5075357;28;20020;-89
2021/09/03 09:11:07;;;;;;;12.88;7.60;;;;;;;17.90;100.00;101147.13;5076462;28;20039;-89
2021/09/03 09:13:42;;;;;;;16.48;7.55;;;;;;;17.62;100.00;101153.41;5075042;28;20029;-89
2021/09/03 09:16:09;;;;;;;17.73;7.30;;;;;;;18.10;100.00;101148.94;5075080;28;20024;-89
2021/09/03 09:18:35;;;;;;;16.38;7.35;;;;;;;17.62;100.00;101149.94;5075131;28;20028;-89
2021/09/03 09:21:29;;;;;;;18.98;7.13;;;;;;;18.65;100.00;101157.19;5075237;28;20476;-89
2021/09/03 09:24:00;;;;;;;13.48;7.65;;;;;;;18.90;100.00;101150.91;5076453;28;20407;-89
2021/09/03 09:26:45;;;;;;;17.98;8.35;;;;;;;18.52;100.00;101142.88;5075799;28;20119;-89
2021/09/03 09:29:18;;;;;;;13.23;7.40;;;;;;;18.34;100.00;101136.59;5075088;28;20031;-89
2021/09/03 09:31:45;;;;;;;14.23;7.20;;;;;;;18.97;100.00;101140.09;5074999;28;20027;-90
2021/09/03 09:34:16;;;;;;;12.73;7.53;;;;;;;20.28;98.33;101145.41;5074795;28;20031;-89
2021/09/03 09:36:41;;;;;;;16.40;7.65;;;;;;;20.19;94.21;101143.22;5076412;28;20115;-89
2021/09/03 09:39:06;;;;;;;14.18;7.57;;;;;;;19.50;99.65;101149.97;5074542;28;20484;-89
2021/09/03 09:41:32;;;;;;;17.35;7.55;;;;;;;19.39;100.00;101143.47;5074761;28;20090;-89
2021/09/03 09:43:57;;;;;;;18.38;7.45;;;;;;;19.24;100.00;101148.53;5074544;28;20111;-89
2021/09/03 09:46:27;;;;;;;16.20;7.53;;;;;;;19.17;100.00;101144.44;5074550;28;20048;-89
2021/09/03 09:49:04;;;;;;;21.33;7.93;;;;;;;18.06;100.00;101136.88;5075377;28;20032;-89
2021/09/03 09:51:30;;;;;;;15.40;7.72;;;;;;;19.60;98.00;101133.75;5074609;28;20024;-90
2021/09/03 09:53:55;;;;;;;14.18;6.97;;;;;;;20.42;96.07;101127.16;5075918;28;20460;-90
2021/09/03 09:56:22;;;;;;;14.20;7.32;;;;;;;21.07;90.54;101119.41;5075985;28;20025;-90
2021/09/03 09:58:50;;;;;;;12.95;6.68;;;;;;;21.35;85.29;101131.13;5074328;28;20024;-90
2021/09/03 10:01:17;;;;;;;13.95;7.40;;;;;;;21.63;86.28;101122.59;5074656;28;20028;-90
2021/09/03 10:03:44;;;;;;;14.20;7.15;;;;;;;21.68;82.43;101119.72;5074295;28;20033;-90
2021/09/03 10:06:09;;;;;;;13.82;7.07;;;;;;;21.14;82.96;101119.94;5074643;28;20052;-90
2021/09/03 10:08:35;;;;;;;12.65;7.00;;;;;;;20.77;85.74;101119.25;5090173;22;20064;-85
2021/09/03 10:11:00;;;;;;;14.02;7.20;;;;;;;22.52;78.13;101118.38;5054493;28;20027;-84
2021/09/03 10:13:26;;;;;;;12.93;6.43;;;;;;;22.34;76.07;101129.19;5054373;28;20033;-85
2021/09/03 10:15:51;;;;;;;16.90;7.15;;;;;;;21.75;81.03;101127.19;5054950;28;20021;-84
2021/09/03 10:18:17;;;;;;;14.32;7.93;;;;;;;21.75;78.75;101124.53;5054928;28;20028;-84
2021/09/03 10:20:43;;;;;;;15.15;7.93;;;;;;;21.61;78.97;101129.72;5054250;28;20021;-84
2021/09/03 10:23:08;;;;;;;13.45;7.22;;;;;;;22.67;76.07;101129.81;5054847;28;20059;-85
2021/09/03 10:25:51;;;;;;;13.57;7.25;;;;;;;21.05;78.68;101126.56;5054545;28;20020;-85
2021/09/03 10:28:25;;;;;;;17.20;7.82;;;;;;;21.56;77.75;101131.78;5057275;28;20021;-84
2021/09/03 10:31:04;;;;;;;14.85;6.65;;;;;;;22.00;74.49;101121.38;5054370;28;20029;-84
2021/09/03 10:33:34;;;;;;;14.95;7.43;;;;;;;22.32;74.50;101123.13;5054061;28;20033;-84
2021/09/03 10:35:59;;;;;;;14.85;7.40;;;;;;;21.70;77.05;101121.28;5054611;28;20495;-84
2021/09/03 10:38:28;;;;;;;18.30;7.25;;;;;;;22.64;72.92;101119.44;5053798;28;20067;-85
2021/09/03 10:40:54;;;;;;;17.95;7.30;;;;;;;22.07;77.44;101106.00;5055253;28;20051;-85
2021/09/03 10:43:39;;;;;;;14.60;6.88;;;;;;;22.02;76.57;101101.00;5054994;28;20025;-85
2021/09/03 10:46:07;;;;;;;15.70;6.55;;;;;;;21.88;80.02;101098.28;5054097;28;20029;-85
2021/09/03 10:48:32;;;;;;;12.60;6.63;;;;;;;21.58;78.79;101095.59;5055250;28;20441;-84
2021/09/03 10:50:59;;;;;;;16.83;7.35;;;;;;;21.22;79.98;101101.09;5054670;28;20048;-84
2021/09/03 10:53:27;;;;;;;15.20;6.85;;;;;;;21.20;79.55;101081.84;5055717;28;20108;-84
2021/09/03 10:55:59;;;;;;;15.00;7.15;;;;;;;22.00;76.45;101091.47;5054588;28;20056;-84
2021/09/03 10:58:49;;;;;;;15.68;7.20;;;;;;;21.81;78.04;101089.88;5055168;28;20024;-85
2021/09/03 11:01:17;;;;;;;14.95;6.93;;;;;;;21.48;77.34;101089.97;5057021;28;20021;-83
2021/09/03 11:04:04;;;;;;;13.52;5.90;;;;;;;22.17;76.02;101087.91;5055839;28;20104;-83
2021/09/03 11:06:38;;;;;;;15.15;5.93;;;;;;;21.60;76.44;101093.72;5056548;28;20028;-83
2021/09/03 11:09:24;;;;;;;;;;;;;;;21.94;75.31;101083.88;5055744;28;20393;-83